Time;durP1;ratioP1;P1;durP2;ratioP2;P2;SDS_P1;SDS_P2;PMS_P1;PMS_P2;Temp;Humidity;BMP_temperature;BMP_pressure;BME280_temperature;BME280_humidity;BME280_pressure;Samples;Min_cycle;Max_cycle;Signal;HPM_P1;HPM_P2
2024/04/04 00:00:01;;;;;;;1.92;0.82;;;12.10;99.90;;;;;;4951705;28;20350;-67
2024/04/04 00:02:37;;;;;;;1.50;1.00;;;12.20;99.90;;;;;;4947376;28;20027;-66
2024/04/04 00:05:04;;;;;;;2.10;0.85;;;12.20;99.90;;;;;;4952396;28;20093;-65
2024/04/04 00:07:30;;;;;;;1.08;0.80;;;12.20;99.90;;;;;;4952915;28;20499;-66
2024/04/04 00:09:57;;;;;;;2.58;1.08;;;12.30;99.90;;;;;;4951018;28;20035;-67
2024/04/04 00:12:25;;;;;;;1.33;0.90;;;12.40;99.90;;;;;;4953009;28;20046;-67
2024/04/04 00:14:51;;;;;;;1.08;0.60;;;12.40;99.90;;;;;;4951393;28;20043;-67
2024/04/04 00:17:17;;;;;;;2.30;1.00;;;12.40;99.90;;;;;;4951820;28;20035;-67
2024/04/04 00:19:45;;;;;;;1.00;0.75;;;12.40;99.90;;;;;;4948953;28;20031;-67
2024/04/04 00:22:11;;;;;;;2.60;0.80;;;12.40;99.90;;;;;;4949200;28;20031;-68
2024/04/04 00:24:36;;;;;;;1.05;0.70;;;12.50;99.90;;;;;;4950519;28;20948;-67
2024/04/04 00:27:02;;;;;;;2.00;0.88;;;12.50;99.90;;;;;;4950533;28;20043;-67
2024/04/04 00:29:28;;;;;;;1.25;0.90;;;12.40;99.90;;;;;;4951131;28;20043;-67
2024/04/04 00:31:54;;;;;;;1.20;0.80;;;12.50;99.90;;;;;;4951180;28;20043;-67
2024/04/04 00:34:20;;;;;;;1.75;0.65;;;12.60;99.90;;;;;;4951059;28;20031;-67
2024/04/04 00:36:46;;;;;;;1.80;0.85;;;12.50;99.90;;;;;;4951850;28;20400;-66
2024/04/04 00:39:13;;;;;;;0.82;0.60;;;12.50;99.90;;;;;;4951519;28;20026;-66
2024/04/04 00:41:39;;;;;;;2.28;0.90;;;12.50;99.90;;;;;;4951672;28;20087;-66
2024/04/04 00:44:05;;;;;;;3.60;1.23;;;12.30;99.90;;;;;;4951299;28;20031;-67
2024/04/04 00:46:31;;;;;;;1.83;1.08;;;12.20;99.90;;;;;;4951348;28;20082;-67
2024/04/04 00:49:00;;;;;;;2.78;0.93;;;12.20;99.90;;;;;;4950753;28;20035;-67
2024/04/04 00:51:27;;;;;;;1.67;1.00;;;12.20;99.90;;;;;;4946718;28;20035;-67
2024/04/04 00:53:53;;;;;;;0.60;0.60;;;12.20;99.90;;;;;;4951230;28;20034;-67
2024/04/04 00:56:20;;;;;;;1.00;0.85;;;12.20;99.90;;;;;;4949942;28;20513;-66
2024/04/04 00:58:46;;;;;;;4.97;0.95;;;12.10;99.90;;;;;;4950533;28;20035;-66
2024/04/04 01:01:13;;;;;;;1.13;1.00;;;12.10;99.90;;;;;;4951082;28;20426;-66
2024/04/04 01:03:39;;;;;;;1.27;1.17;;;12.10;99.90;;;;;;4949923;28;20027;-66
2024/04/04 01:06:05;;;;;;;1.05;0.95;;;12.10;99.90;;;;;;4950769;28;20057;-66
2024/04/04 01:08:32;;;;;;;1.50;1.00;;;12.10;99.90;;;;;;4950130;28;20478;-66
2024/04/04 01:10:58;;;;;;;1.38;1.10;;;12.00;99.90;;;;;;4949146;28;20074;-66
2024/04/04 01:13:24;;;;;;;1.13;0.95;;;12.00;99.90;;;;;;4947959;28;20027;-66
2024/04/04 01:15:50;;;;;;;1.83;1.20;;;11.80;99.90;;;;;;4950783;28;20105;-66
2024/04/04 01:18:18;;;;;;;1.50;1.30;;;11.70;99.90;;;;;;4949205;28;20042;-66
2024/04/04 01:20:44;;;;;;;1.33;1.17;;;11.70;99.90;;;;;;4949562;28;20568;-66
2024/04/04 01:23:09;;;;;;;2.53;1.55;;;11.80;99.90;;;;;;4952056;28;20038;-67
2024/04/04 01:25:35;;;;;;;1.40;1.30;;;11.80;99.90;;;;;;4949635;28;20539;-66
2024/04/04 01:28:01;;;;;;;1.80;1.45;;;11.80;99.90;;;;;;4951320;28;20023;-66
2024/04/04 01:30:27;;;;;;;1.90;1.17;;;11.80;99.90;;;;;;4950038;28;20156;-67
2024/04/04 01:32:53;;;;;;;1.38;1.27;;;11.80;99.90;;;;;;4950289;28;20090;-67
2024/04/04 01:35:18;;;;;;;1.88;1.33;;;11.80;99.90;;;;;;4949953;28;20031;-67
2024/04/04 01:37:44;;;;;;;2.65;1.60;;;11.90;99.90;;;;;;4950784;28;20035;-67
2024/04/04 01:40:10;;;;;;;1.60;1.42;;;11.90;99.90;;;;;;4949201;28;20035;-67
2024/04/04 01:42:36;;;;;;;3.08;1.35;;;11.80;99.90;;;;;;4950035;28;20024;-67
2024/04/04 01:45:02;;;;;;;1.95;1.52;;;11.90;99.90;;;;;;4949508;28;20070;-67
2024/04/04 01:47:27;;;;;;;2.35;1.45;;;11.80;99.90;;;;;;4951509;28;20137;-68
2024/04/04 01:49:53;;;;;;;1.65;1.55;;;11.90;99.90;;;;;;4947615;28;20102;-68
2024/04/04 01:52:19;;;;;;;1.50;1.40;;;11.90;99.90;;;;;;4950832;28;20752;-67
2024/04/04 01:54:45;;;;;;;2.78;1.42;;;12.00;99.90;;;;;;4949033;28;20478;-67
2024/04/04 01:57:10;;;;;;;3.22;1.38;;;11.90;99.90;;;;;;4951610;28;20749;-67
2024/04/04 01:59:36;;;;;;;2.42;1.95;;;11.90;99.90;;;;;;4948703;28;20403;-67
2024/04/04 02:02:02;;;;;;;2.03;1.55;;;11.90;99.90;;;;;;4950383;28;20027;-67
2024/04/04 02:04:28;;;;;;;1.83;1.63;;;11.80;99.90;;;;;;4949092;28;20096;-66
2024/04/04 02:06:54;;;;;;;3.13;2.08;;;11.80;99.90;;;;;;4950170;28;20038;-66
2024/04/04 02:09:20;;;;;;;2.97;2.05;;;11.70;99.90;;;;;;4948133;28;20046;-66
2024/04/04 02:11:46;;;;;;;1.95;1.67;;;11.80;99.90;;;;;;4948595;28;20050;-66
2024/04/04 02:14:12;;;;;;;2.42;1.75;;;11.80;99.90;;;;;;4947352;28;20031;-65
2024/04/04 02:16:38;;;;;;;2.95;1.90;;;11.90;99.90;;;;;;4950764;28;20049;-66
2024/04/04 02:19:04;;;;;;;1.70;1.60;;;11.80;99.90;;;;;;4949337;28;20027;-66
2024/04/04 02:21:30;;;;;;;3.22;1.98;;;11.80;99.90;;;;;;4949546;28;20925;-66
2024/04/04 02:23:55;;;;;;;4.13;2.20;;;11.70;99.90;;;;;;4948003;28;20038;-66
2024/04/04 02:26:21;;;;;;;5.63;2.40;;;11.60;99.90;;;;;;4951461;28;20031;-66
2024/04/04 02:28:47;;;;;;;2.58;2.15;;;11.60;99.90;;;;;;4947862;28;20117;-66
2024/04/04 02:31:12;;;;;;;2.45;2.10;;;11.70;99.90;;;;;;4950260;28;20100;-66
2024/04/04 02:33:39;;;;;;;5.05;2.20;;;11.80;99.90;;;;;;4948494;28;20074;-66
2024/04/04 02:36:05;;;;;;;2.95;2.17;;;11.80;99.90;;;;;;4948004;28;20050;-66
2024/04/04 02:38:31;;;;;;;3.22;2.08;;;11.80;99.90;;;;;;4948777;28;20468;-66
2024/04/04 02:40:57;;;;;;;4.38;2.30;;;11.70;99.90;;;;;;4949587;28;20039;-66
2024/04/04 02:43:22;;;;;;;2.75;2.03;;;11.70;99.90;;;;;;4948139;28;20089;-66
2024/04/04 02:45:58;;;;;;;2.08;1.88;;;11.70;99.90;;;;;;4949772;28;20031;-67
2024/04/04 02:48:24;;;;;;;;;;;11.70;99.90;;;;;;4947067;28;20035;-67
2024/04/04 02:50:54;;;;;;;3.10;2.13;;;11.60;99.90;;;;;;4946954;28;19969;-66
2024/04/04 02:53:20;;;;;;;2.38;1.70;;;11.60;99.90;;;;;;4946922;28;20042;-66
2024/04/04 02:55:57;;;;;;;2.83;1.83;;;11.50;99.90;;;;;;4949030;28;20039;-67
2024/04/04 02:58:23;;;;;;;2.35;2.10;;;11.50;99.90;;;;;;4949615;28;20030;-66
2024/04/04 03:00:51;;;;;;;4.63;1.92;;;11.40;99.90;;;;;;4947128;28;20110;-66
2024/04/04 03:03:17;;;;;;;4.18;2.22;;;11.40;99.90;;;;;;4949647;28;20034;-66
2024/04/04 03:05:44;;;;;;;5.05;2.20;;;11.40;99.90;;;;;;4947306;28;20032;-66
2024/04/04 03:08:10;;;;;;;3.88;2.47;;;11.40;99.90;;;;;;4948271;28;20031;-66
2024/04/04 03:10:37;;;;;;;2.60;2.40;;;11.30;99.90;;;;;;4948217;28;20039;-66
2024/04/04 03:13:03;;;;;;;6.35;2.30;;;11.30;99.90;;;;;;4950054;28;20107;-66
2024/04/04 03:15:30;;;;;;;2.33;2.13;;;11.30;99.90;;;;;;4948909;28;20138;-66
2024/04/04 03:17:57;;;;;;;5.40;2.17;;;11.30;99.90;;;;;;4949547;28;20036;-67
2024/04/04 03:20:23;;;;;;;8.88;2.35;;;11.30;99.90;;;;;;4950326;28;20035;-67
2024/04/04 03:22:49;;;;;;;2.40;2.20;;;11.20;99.90;;;;;;4952008;28;20046;-67
2024/04/04 03:25:15;;;;;;;4.18;2.20;;;11.20;99.90;;;;;;4951940;28;20035;-67
2024/04/04 03:27:41;;;;;;;2.83;2.35;;;11.20;99.90;;;;;;4952760;28;20034;-67
2024/04/04 03:30:07;;;;;;;3.20;2.13;;;11.20;99.90;;;;;;4951360;28;20369;-67
2024/04/04 03:32:33;;;;;;;2.05;1.80;;;11.10;99.90;;;;;;4953119;28;20027;-67
2024/04/04 03:34:59;;;;;;;2.60;2.25;;;11.10;99.90;;;;;;4950570;28;20046;-67
2024/04/04 03:37:25;;;;;;;2.35;2.10;;;11.00;99.90;;;;;;4952957;28;20031;-67
2024/04/04 03:39:54;;;;;;;3.00;2.03;;;11.00;99.90;;;;;;4952361;28;20057;-67
2024/04/04 03:42:20;;;;;;;3.25;1.90;;;11.10;99.90;;;;;;4952828;28;20027;-67
2024/04/04 03:44:50;;;;;;;3.22;2.03;;;11.10;99.90;;;;;;4951942;28;20045;-67
2024/04/04 03:47:16;;;;;;;2.53;2.13;;;11.10;99.90;;;;;;4952555;28;20126;-68
2024/04/04 03:49:42;;;;;;;2.28;2.05;;;11.20;99.90;;;;;;4952230;28;20109;-67
2024/04/04 03:52:08;;;;;;;2.65;2.03;;;11.20;99.90;;;;;;4952756;28;20035;-67
2024/04/04 03:54:33;;;;;;;5.88;2.17;;;11.30;99.90;;;;;;4951961;28;20039;-67
2024/04/04 03:56:59;;;;;;;4.00;2.42;;;11.30;99.90;;;;;;4951539;28;20078;-67
2024/04/04 03:59:25;;;;;;;3.35;2.15;;;11.30;99.90;;;;;;4951209;28;20728;-66
2024/04/04 04:01:52;;;;;;;3.08;2.60;;;11.20;99.90;;;;;;4952644;28;20054;-66
2024/04/04 04:04:18;;;;;;;2.58;2.08;;;11.20;99.90;;;;;;4949954;28;20034;-66
2024/04/04 04:06:43;;;;;;;2.95;2.17;;;11.10;99.90;;;;;;4951332;28;20039;-66
2024/04/04 04:09:09;;;;;;;2.65;2.30;;;11.10;99.90;;;;;;4950881;28;20046;-66
2024/04/04 04:11:35;;;;;;;3.45;2.10;;;11.20;99.90;;;;;;4950300;28;20041;-66
2024/04/04 04:14:01;;;;;;;4.18;2.25;;;11.30;99.90;;;;;;4950184;28;20031;-66
2024/04/04 04:16:27;;;;;;;2.88;2.00;;;11.30;99.90;;;;;;4952498;28;20440;-66
2024/04/04 04:18:53;;;;;;;3.80;2.22;;;11.30;99.90;;;;;;4948385;28;20027;-66
2024/04/04 04:21:21;;;;;;;3.17;1.42;;;11.40;99.90;;;;;;4950801;28;20745;-66
2024/04/04 04:23:48;;;;;;;2.90;1.75;;;11.40;99.90;;;;;;4952044;28;20055;-66
2024/04/04 04:26:15;;;;;;;3.35;2.00;;;11.40;99.90;;;;;;4951004;28;20043;-66
2024/04/04 04:28:41;;;;;;;4.60;2.20;;;11.50;99.90;;;;;;4949796;28;20415;-66
2024/04/04 04:31:25;;;;;;;2.80;1.85;;;11.50;99.90;;;;;;4950276;28;20035;-66
2024/04/04 04:33:51;;;;;;;4.60;2.20;;;11.50;99.90;;;;;;4949788;28;20490;-66
2024/04/04 04:36:17;;;;;;;3.13;1.70;;;11.50;99.90;;;;;;4950455;28;20031;-66
2024/04/04 04:38:43;;;;;;;4.70;2.05;;;11.50;99.90;;;;;;4951309;28;20048;-66
2024/04/04 04:41:09;;;;;;;3.92;1.75;;;11.50;99.90;;;;;;4948468;28;20607;-66
2024/04/04 04:43:34;;;;;;;3.88;2.10;;;11.50;99.90;;;;;;4951725;28;20408;-66
2024/04/04 04:46:00;;;;;;;2.33;1.88;;;11.40;99.90;;;;;;4949962;28;20035;-67
2024/04/04 04:48:26;;;;;;;4.38;1.90;;;11.40;99.90;;;;;;4951312;28;20090;-67
2024/04/04 04:50:52;;;;;;;2.55;2.00;;;11.40;99.90;;;;;;4948046;28;20032;-67
2024/04/04 04:53:18;;;;;;;4.10;1.75;;;11.40;99.90;;;;;;4951581;28;20074;-67
2024/04/04 04:55:47;;;;;;;4.20;1.95;;;11.50;99.90;;;;;;4950897;28;20029;-67
2024/04/04 04:58:13;;;;;;;5.07;1.80;;;11.50;99.90;;;;;;4951644;28;20042;-66
2024/04/04 05:00:39;;;;;;;3.13;1.75;;;11.50;99.90;;;;;;4949630;28;20063;-66
2024/04/04 05:03:05;;;;;;;2.28;1.70;;;11.60;99.90;;;;;;4951085;28;20122;-66
2024/04/04 05:05:31;;;;;;;4.40;2.42;;;11.60;99.90;;;;;;4950225;28;20035;-66
2024/04/04 05:07:57;;;;;;;3.40;1.92;;;11.50;99.90;;;;;;4951144;28;20448;-67
2024/04/04 05:10:22;;;;;;;2.78;1.65;;;11.50;99.90;;;;;;4950349;28;20818;-66
2024/04/04 05:12:48;;;;;;;2.22;1.67;;;11.50;99.90;;;;;;4950984;28;20035;-67
2024/04/04 05:15:14;;;;;;;2.10;1.30;;;11.40;99.90;;;;;;4950179;28;20041;-67
2024/04/04 05:17:40;;;;;;;3.17;1.60;;;11.40;99.90;;;;;;4950800;28;20062;-66
2024/04/04 05:20:06;;;;;;;2.03;1.80;;;11.50;99.90;;;;;;4948599;28;20698;-66
2024/04/04 05:22:31;;;;;;;4.22;1.77;;;11.50;99.90;;;;;;4950907;28;20034;-66
2024/04/04 05:24:57;;;;;;;5.25;1.83;;;11.40;99.90;;;;;;4948456;28;20027;-67
2024/04/04 05:27:23;;;;;;;1.80;1.50;;;11.30;99.90;;;;;;4951839;28;20031;-66
2024/04/04 05:29:53;;;;;;;3.58;1.85;;;11.20;99.90;;;;;;4947737;28;20039;-66
2024/04/04 05:32:19;;;;;;;3.20;1.50;;;11.30;99.90;;;;;;4951334;28;20065;-66
2024/04/04 05:34:47;;;;;;;2.05;1.52;;;11.30;99.90;;;;;;4949835;28;20495;-66
2024/04/04 05:37:14;;;;;;;1.92;1.30;;;11.30;99.90;;;;;;4950145;28;20070;-66
2024/04/04 05:39:40;;;;;;;1.98;1.27;;;11.20;99.90;;;;;;4948282;28;20027;-66
2024/04/04 05:42:06;;;;;;;2.70;1.85;;;11.30;99.90;;;;;;4949550;28;20508;-66
2024/04/04 05:44:31;;;;;;;4.80;1.70;;;11.40;99.90;;;;;;4951122;28;20060;-67
2024/04/04 05:46:57;;;;;;;3.00;1.40;;;11.40;99.90;;;;;;4949841;28;20796;-67
2024/04/04 05:49:23;;;;;;;2.72;1.45;;;11.30;99.90;;;;;;4952365;28;20041;-67
2024/04/04 05:51:49;;;;;;;3.20;1.58;;;11.40;99.90;;;;;;4948481;28;20039;-66
2024/04/04 05:54:16;;;;;;;4.70;1.40;;;11.50;99.90;;;;;;4951166;28;20129;-66
2024/04/04 05:56:42;;;;;;;2.13;1.33;;;11.60;99.90;;;;;;4948555;28;20778;-66
2024/04/04 05:59:08;;;;;;;5.78;1.83;;;11.80;99.90;;;;;;4950815;28;20034;-66
2024/04/04 06:01:33;;;;;;;3.13;2.13;;;12.10;99.90;;;;;;4948199;28;20027;-66
2024/04/04 06:03:59;;;;;;;2.35;1.60;;;12.40;99.90;;;;;;4949484;28;20042;-66
2024/04/04 06:06:25;;;;;;;2.03;1.83;;;12.70;99.90;;;;;;4949235;28;20114;-67
2024/04/04 06:08:52;;;;;;;2.45;1.50;;;13.00;99.90;;;;;;4950034;28;20134;-66
2024/04/04 06:11:18;;;;;;;2.08;1.73;;;13.20;99.90;;;;;;4947861;28;20066;-66
2024/04/04 06:13:44;;;;;;;2.70;1.92;;;13.60;99.90;;;;;;4949965;28;20031;-66
2024/04/04 06:16:09;;;;;;;3.22;1.98;;;13.90;99.90;;;;;;4948474;28;20023;-66
2024/04/04 06:18:35;;;;;;;3.70;1.52;;;14.00;99.90;;;;;;4947448;28;20403;-66
2024/04/04 06:21:01;;;;;;;2.35;1.42;;;14.40;99.90;;;;;;4949477;28;20410;-66
2024/04/04 06:23:28;;;;;;;1.45;1.25;;;14.60;99.90;;;;;;4949823;28;20868;-66
2024/04/04 06:25:55;;;;;;;2.17;1.40;;;14.80;99.90;;;;;;4949510;28;20041;-66
2024/04/04 06:28:20;;;;;;;3.83;1.63;;;14.30;99.90;;;;;;4949578;28;20027;-66
2024/04/04 06:30:46;;;;;;;2.97;1.55;;;13.90;99.90;;;;;;4947397;28;20101;-66
2024/04/04 06:33:12;;;;;;;2.00;1.40;;;13.50;99.90;;;;;;4949505;28;20487;-66
2024/04/04 06:35:38;;;;;;;1.85;1.55;;;13.20;99.90;;;;;;4949065;28;20086;-66
2024/04/04 06:38:04;;;;;;;2.88;1.60;;;13.00;99.90;;;;;;4949406;28;20034;-66
2024/04/04 06:40:32;;;;;;;3.92;1.70;;;12.90;99.90;;;;;;4947756;28;20570;-66
2024/04/04 06:42:58;;;;;;;3.08;1.70;;;12.80;99.90;;;;;;4947594;28;20031;-66
2024/04/04 06:45:24;;;;;;;5.55;1.90;;;13.10;99.90;;;;;;4947421;28;20023;-67
2024/04/04 06:47:57;;;;;;;2.03;1.38;;;13.80;99.90;;;;;;4945783;28;20035;-67
2024/04/04 06:50:26;;;;;;;5.78;1.58;;;14.40;99.90;;;;;;4949077;28;20166;-68
2024/04/04 06:52:53;;;;;;;3.40;1.35;;;14.70;99.90;;;;;;4947976;28;20043;-69
2024/04/04 06:55:18;;;;;;;3.80;1.52;;;14.60;99.90;;;;;;4951766;28;20081;-67
2024/04/04 06:57:44;;;;;;;5.35;1.30;;;14.70;99.90;;;;;;4952129;28;20122;-69
2024/04/04 07:00:11;;;;;;;3.10;1.42;;;14.70;99.90;;;;;;4951823;28;20054;-67
2024/04/04 07:02:38;;;;;;;1.80;1.70;;;14.60;99.90;;;;;;4950183;28;20481;-65
2024/04/04 07:05:06;;;;;;;3.38;1.33;;;14.70;99.90;;;;;;4956843;28;20059;-65
2024/04/04 07:07:32;;;;;;;2.92;1.10;;;14.60;99.90;;;;;;4952065;28;20039;-66
2024/04/04 07:09:58;;;;;;;3.30;1.45;;;14.70;99.90;;;;;;4952500;28;20109;-66
2024/04/04 07:12:24;;;;;;;1.73;1.30;;;14.80;99.90;;;;;;4950098;28;20070;-66
2024/04/04 07:14:50;;;;;;;4.22;1.10;;;14.90;99.90;;;;;;4952675;28;20519;-70
2024/04/04 07:17:16;;;;;;;3.13;1.25;;;14.90;99.90;;;;;;4951377;28;20420;-66
2024/04/04 07:19:41;;;;;;;3.53;1.25;;;15.00;99.90;;;;;;4953375;28;20031;-66
2024/04/04 07:22:07;;;;;;;1.98;1.15;;;15.60;99.90;;;;;;4951036;28;20035;-64
2024/04/04 07:24:33;;;;;;;4.18;1.10;;;15.90;99.90;;;;;;4953208;28;20031;-66
2024/04/04 07:26:59;;;;;;;5.55;0.90;;;16.50;99.90;;;;;;4950347;28;20043;-65
2024/04/04 07:29:24;;;;;;;2.47;0.90;;;16.50;99.90;;;;;;4951147;28;20125;-66
2024/04/04 07:31:50;;;;;;;1.50;1.08;;;16.60;99.90;;;;;;4948764;28;20046;-66
2024/04/04 07:34:16;;;;;;;4.60;1.00;;;16.30;99.90;;;;;;4953266;28;20046;-66
2024/04/04 07:36:42;;;;;;;5.18;1.25;;;16.10;99.90;;;;;;4949573;28;20049;-65
2024/04/04 07:39:09;;;;;;;4.50;1.00;;;15.80;99.90;;;;;;4953380;28;20034;-66
2024/04/04 07:41:36;;;;;;;8.57;1.00;;;15.80;99.90;;;;;;4949215;28;20802;-66
2024/04/04 07:44:02;;;;;;;4.03;1.10;;;15.80;99.90;;;;;;4952558;28;20031;-67
2024/04/04 07:46:28;;;;;;;1.75;0.90;;;15.80;99.90;;;;;;4950093;28;20384;-65
2024/04/04 07:48:56;;;;;;;3.95;1.00;;;15.80;99.90;;;;;;4950939;28;20043;-74
2024/04/04 07:51:22;;;;;;;1.67;1.02;;;15.50;99.90;;;;;;4952216;28;20038;-75
2024/04/04 07:53:49;;;;;;;3.65;1.13;;;15.60;99.90;;;;;;4952755;28;20106;-73
2024/04/04 07:56:16;;;;;;;2.22;0.98;;;15.90;99.90;;;;;;4951669;28;20062;-72
2024/04/04 07:58:44;;;;;;;2.55;0.90;;;16.10;99.90;;;;;;4952180;28;20058;-72
2024/04/04 08:01:11;;;;;;;0.95;0.85;;;15.70;99.90;;;;;;4951684;28;20035;-70
2024/04/04 08:03:37;;;;;;;3.10;1.00;;;15.80;99.90;;;;;;4954192;28;20027;-69
2024/04/04 08:06:04;;;;;;;3.63;0.80;;;15.90;99.90;;;;;;4942375;28;20061;-70
2024/04/04 08:08:29;;;;;;;2.80;0.98;;;16.10;99.90;;;;;;4947985;28;20050;-72
2024/04/04 08:10:55;;;;;;;2.00;0.80;;;16.10;99.90;;;;;;4949792;28;20039;-67
2024/04/04 08:13:21;;;;;;;1.33;0.80;;;16.10;99.90;;;;;;4951219;28;20030;-67
2024/04/04 08:15:53;;;;;;;4.10;1.08;;;16.30;99.90;;;;;;4949981;28;20038;-67
2024/04/04 08:18:19;;;;;;;1.90;0.65;;;16.60;99.90;;;;;;4952019;28;20082;-67
2024/04/04 08:20:46;;;;;;;1.48;0.88;;;17.00;99.90;;;;;;4951323;28;20043;-69
2024/04/04 08:23:11;;;;;;;1.77;0.52;;;17.30;99.90;;;;;;4951930;28;20035;-65
2024/04/04 08:25:37;;;;;;;2.53;0.70;;;17.50;99.90;;;;;;4946730;28;20115;-66
2024/04/04 08:28:04;;;;;;;2.08;0.50;;;17.10;99.90;;;;;;4950497;28;20035;-66
2024/04/04 08:30:30;;;;;;;0.70;0.40;;;16.90;99.90;;;;;;4951650;28;20031;-66
2024/04/04 08:32:57;;;;;;;2.03;0.43;;;16.70;99.70;;;;;;4951055;28;20141;-68
2024/04/04 08:35:23;;;;;;;2.22;0.52;;;16.30;99.90;;;;;;4951997;28;20042;-66
2024/04/04 08:37:49;;;;;;;1.25;0.40;;;16.20;99.90;;;;;;4950171;28;20039;-65
2024/04/04 08:40:15;;;;;;;1.38;0.70;;;15.80;99.90;;;;;;4951774;28;20046;-66
2024/04/04 08:42:42;;;;;;;3.65;0.60;;;15.80;99.90;;;;;;4949635;28;20121;-66
2024/04/04 08:45:12;;;;;;;2.58;0.60;;;15.80;99.90;;;;;;4951764;28;20530;-66
2024/04/04 08:47:39;;;;;;;1.73;0.75;;;16.10;99.90;;;;;;4950762;28;20146;-66
2024/04/04 08:50:07;;;;;;;3.33;0.68;;;16.10;99.90;;;;;;4951664;28;20030;-66
2024/04/04 08:52:34;;;;;;;1.35;0.50;;;16.30;99.90;;;;;;4950412;28;20035;-66
2024/04/04 08:55:00;;;;;;;2.33;0.77;;;16.40;99.90;;;;;;4951021;28;20043;-66
2024/04/04 08:57:26;;;;;;;3.58;0.60;;;16.60;99.90;;;;;;4951053;28;20110;-66
2024/04/04 08:59:56;;;;;;;1.25;0.40;;;16.70;99.70;;;;;;4950763;28;20117;-66
2024/04/04 09:02:22;;;;;;;2.22;0.50;;;16.80;99.60;;;;;;4948573;28;20027;-66
2024/04/04 09:04:48;;;;;;;1.88;0.57;;;16.60;99.90;;;;;;4950648;28;20470;-66
2024/04/04 09:07:14;;;;;;;2.95;1.30;;;16.20;99.90;;;;;;4949626;28;20522;-66
2024/04/04 09:09:47;;;;;;;3.72;0.75;;;16.40;99.90;;;;;;4950885;28;20031;-66
2024/04/04 09:12:16;;;;;;;2.17;0.60;;;16.60;99.90;;;;;;4948075;28;20034;-68
2024/04/04 09:14:42;;;;;;;2.40;0.40;;;16.90;99.80;;;;;;4948564;28;20098;-67
2024/04/04 09:17:10;;;;;;;1.88;0.45;;;17.20;99.10;;;;;;4948919;28;20039;-70
2024/04/04 09:19:36;;;;;;;5.95;0.75;;;17.00;99.00;;;;;;4948056;28;20034;-67
2024/04/04 09:22:06;;;;;;;3.55;0.90;;;17.10;99.30;;;;;;4948459;28;20062;-67
2024/04/04 09:24:32;;;;;;;4.10;0.50;;;16.80;99.70;;;;;;4948472;28;20686;-66
2024/04/04 09:26:57;;;;;;;2.40;0.50;;;16.60;98.40;;;;;;4949076;28;20043;-69
2024/04/04 09:29:26;;;;;;;1.92;0.65;;;16.40;99.00;;;;;;4949839;28;20118;-67
2024/04/04 09:31:53;;;;;;;1.30;0.50;;;16.20;99.90;;;;;;4946077;28;20077;-67
2024/04/04 09:34:19;;;;;;;4.90;0.63;;;16.10;99.00;;;;;;4949589;28;20544;-67
2024/04/04 09:36:46;;;;;;;1.38;0.40;;;15.90;99.90;;;;;;4948404;28;21076;-68
2024/04/04 09:39:19;;;;;;;1.40;0.45;;;15.60;99.90;;;;;;4949175;28;20458;-68
2024/04/04 09:41:48;;;;;;;4.40;0.68;;;15.50;99.90;;;;;;4946890;28;20031;-70
2024/04/04 09:44:14;;;;;;;3.30;0.32;;;15.40;99.90;;;;;;4946070;28;20031;-68
2024/04/04 09:46:41;;;;;;;6.63;0.47;;;15.30;99.90;;;;;;4946219;28;20102;-69
2024/04/04 09:49:07;;;;;;;4.93;0.70;;;15.10;99.90;;;;;;4950039;28;20039;-70
2024/04/04 09:51:34;;;;;;;2.55;0.47;;;14.90;99.90;;;;;;4949297;28;20031;-68
2024/04/04 09:54:00;;;;;;;1.70;0.40;;;15.00;99.90;;;;;;4947552;28;20063;-70
2024/04/04 09:56:28;;;;;;;1.77;0.60;;;15.00;99.90;;;;;;4948433;28;20053;-67
2024/04/04 09:58:55;;;;;;;1.98;0.75;;;15.00;99.90;;;;;;4947644;28;20495;-67
2024/04/04 10:01:25;;;;;;;1.15;0.57;;;14.90;99.90;;;;;;4944514;28;20034;-67
2024/04/04 10:03:51;;;;;;;1.75;0.47;;;15.00;99.90;;;;;;4948935;28;20439;-68
2024/04/04 10:06:32;;;;;;;1.55;0.60;;;15.30;99.90;;;;;;4948855;28;20045;-67
2024/04/04 10:08:58;;;;;;;2.85;0.70;;;15.50;99.90;;;;;;4944671;28;20035;-67
2024/04/04 10:11:32;;;;;;;2.00;0.70;;;15.80;99.90;;;;;;4948716;28;20026;-67
2024/04/04 10:14:02;;;;;;;2.28;0.75;;;16.00;99.90;;;;;;4948132;28;20856;-68
2024/04/04 10:16:33;;;;;;;3.00;0.65;;;16.10;99.90;;;;;;4948006;28;20040;-68
2024/04/04 10:19:16;;;;;;;3.03;0.60;;;15.70;99.90;;;;;;4947012;28;20547;-68
2024/04/04 10:21:42;;;;;;;2.17;1.00;;;15.60;99.90;;;;;;4946478;28;20023;-67
2024/04/04 10:24:09;;;;;;;3.15;0.65;;;15.40;99.90;;;;;;4947362;28;20027;-66
2024/04/04 10:26:36;;;;;;;2.63;0.82;;;15.20;99.90;;;;;;4949787;28;20050;-66
2024/04/04 10:29:03;;;;;;;1.00;0.50;;;15.00;99.90;;;;;;4947517;28;20042;-67
2024/04/04 10:31:30;;;;;;;2.90;0.77;;;14.90;99.90;;;;;;4947477;28;20043;-70
2024/04/04 10:34:03;;;;;;;5.43;1.05;;;14.80;99.90;;;;;;4947280;28;20133;-69
2024/04/04 10:36:39;;;;;;;4.28;0.65;;;14.90;99.90;;;;;;4947228;28;20110;-68
2024/04/04 10:39:09;;;;;;;2.95;0.68;;;14.80;99.90;;;;;;4947450;28;20026;-70
2024/04/04 10:41:37;;;;;;;6.97;1.10;;;14.80;99.90;;;;;;4946578;28;20027;-68
2024/04/04 10:44:09;;;;;;;4.88;0.77;;;14.70;99.90;;;;;;4946083;28;20118;-68
2024/04/04 10:46:51;;;;;;;3.88;1.20;;;14.70;99.90;;;;;;4948183;28;20487;-67
2024/04/04 10:49:29;;;;;;;3.40;0.80;;;14.60;99.90;;;;;;4947143;28;20864;-67
2024/04/04 10:52:00;;;;;;;4.22;1.00;;;14.60;99.90;;;;;;4945095;28;20042;-70
2024/04/04 10:54:31;;;;;;;1.40;0.77;;;14.40;99.90;;;;;;4948357;28;20043;-71
2024/04/04 10:56:57;;;;;;;2.85;0.93;;;14.20;99.90;;;;;;4944985;28;20043;-70
2024/04/04 10:59:24;;;;;;;1.30;0.70;;;14.20;99.90;;;;;;4949536;28;20047;-69
2024/04/04 11:01:56;;;;;;;3.28;0.90;;;14.30;99.90;;;;;;4945846;28;20035;-71
2024/04/04 11:04:23;;;;;;;2.10;0.77;;;14.40;99.90;;;;;;4945949;28;20562;-67
2024/04/04 11:06:50;;;;;;;2.38;0.80;;;14.60;99.90;;;;;;4946207;28;20060;-69
2024/04/04 11:09:24;;;;;;;3.63;1.02;;;14.70;99.90;;;;;;4948576;28;20490;-68
2024/04/04 11:11:52;;;;;;;2.40;0.98;;;14.80;99.90;;;;;;4946139;28;20046;-66
2024/04/04 11:14:18;;;;;;;1.67;0.55;;;14.80;99.90;;;;;;4945621;28;20491;-70
2024/04/04 11:16:44;;;;;;;6.22;0.95;;;14.80;99.90;;;;;;4946527;28;20039;-70
2024/04/04 11:19:11;;;;;;;3.38;0.95;;;14.90;99.90;;;;;;4945447;28;20035;-69
2024/04/04 11:21:37;;;;;;;2.85;0.77;;;14.90;99.90;;;;;;4944847;28;20395;-70
2024/04/04 11:24:04;;;;;;;3.83;1.45;;;14.80;99.90;;;;;;4946863;28;20675;-70
2024/04/04 11:26:30;;;;;;;1.23;0.60;;;14.80;99.90;;;;;;4947489;28;20041;-70
2024/04/04 11:28:59;;;;;;;0.88;0.60;;;14.80;99.90;;;;;;4944701;28;20019;-70
2024/04/04 11:31:26;;;;;;;3.65;1.30;;;14.90;99.90;;;;;;4946975;28;20073;-70
2024/04/04 11:33:52;;;;;;;3.13;0.73;;;14.80;99.90;;;;;;4948529;28;20027;-70
2024/04/04 11:36:17;;;;;;;2.58;0.93;;;14.60;99.90;;;;;;4948841;28;20043;-70
2024/04/04 11:38:43;;;;;;;1.65;1.00;;;14.60;99.90;;;;;;4947410;28;20029;-70
2024/04/04 11:41:09;;;;;;;1.60;0.77;;;14.60;99.90;;;;;;4951006;28;20427;-70
2024/04/04 11:43:35;;;;;;;1.92;1.00;;;14.70;99.90;;;;;;4949894;28;20041;-69
2024/04/04 11:46:02;;;;;;;4.53;1.52;;;14.80;99.90;;;;;;4951913;28;20032;-70
2024/04/04 11:48:28;;;;;;;2.47;0.80;;;14.70;99.90;;;;;;4952118;28;20035;-69
2024/04/04 11:50:53;;;;;;;3.63;0.90;;;14.60;99.90;;;;;;4951475;28;20415;-71
2024/04/04 11:53:19;;;;;;;2.10;1.05;;;14.50;99.90;;;;;;4951403;28;20138;-70
2024/04/04 11:55:45;;;;;;;1.40;0.93;;;14.40;99.90;;;;;;4951765;28;20051;-70
2024/04/04 11:58:11;;;;;;;3.00;1.02;;;14.30;99.90;;;;;;4950924;28;20057;-70
2024/04/04 12:00:37;;;;;;;2.05;1.02;;;14.30;99.90;;;;;;4951827;28;20035;-70
2024/04/04 12:03:03;;;;;;;2.85;1.17;;;14.20;99.90;;;;;;4951048;28;20046;-70
2024/04/04 12:05:34;;;;;;;2.85;1.20;;;14.20;99.90;;;;;;4950983;28;20027;-70
2024/04/04 12:08:01;;;;;;;3.30;1.40;;;14.10;99.90;;;;;;4943585;28;20387;-69
2024/04/04 12:10:27;;;;;;;3.40;1.65;;;14.10;99.90;;;;;;4951310;28;20046;-70
2024/04/04 12:12:56;;;;;;;2.78;1.38;;;14.10;99.90;;;;;;4950450;28;20392;-70
2024/04/04 12:15:22;;;;;;;3.05;1.63;;;14.00;99.90;;;;;;4951072;28;20035;-70
2024/04/04 12:17:52;;;;;;;1.63;1.52;;;13.90;99.90;;;;;;4950366;28;20131;-70
2024/04/04 12:20:19;;;;;;;5.80;1.75;;;13.90;99.90;;;;;;4951146;28;20027;-70
2024/04/04 12:22:48;;;;;;;4.57;1.60;;;13.90;99.90;;;;;;4950221;28;20707;-70
2024/04/04 12:25:15;;;;;;;5.72;1.90;;;13.90;99.90;;;;;;4951499;28;20407;-69
2024/04/04 12:27:44;;;;;;;3.70;1.98;;;13.80;99.90;;;;;;4952165;28;20039;-70
2024/04/04 12:30:10;;;;;;;4.85;2.17;;;13.80;99.90;;;;;;4952972;28;20042;-70
2024/04/04 12:32:36;;;;;;;5.00;2.05;;;13.90;99.90;;;;;;4949314;28;20035;-70
2024/04/04 12:35:02;;;;;;;5.95;2.15;;;13.90;99.90;;;;;;4950469;28;20384;-70
2024/04/04 12:37:28;;;;;;;5.22;2.08;;;13.90;99.90;;;;;;4951074;28;20030;-69
2024/04/04 12:39:54;;;;;;;6.30;2.22;;;14.00;99.90;;;;;;4950888;28;20039;-71
2024/04/04 12:42:20;;;;;;;2.47;1.95;;;13.90;99.90;;;;;;4949153;28;20031;-70
2024/04/04 12:44:47;;;;;;;4.45;2.40;;;14.00;99.90;;;;;;4949790;28;20031;-70